Overview Statistics Trail Chart Weather Telemetry Raw packets
 

This is the latest recevied weather packets stored in our database for station/object N9BLE. If no packets are shown the sender has not sent any weather packets the latest 10 day(s).

<< 76 77 78 79 80 81 82 >>
Time Temp. Humidity Pressure Rain* Wind** Luminosity Snow
1777491914 12.78° C 48% 1018 hPa 0 mm - 130 W/m² -
1777491609 12.78° C 50% 1018 hPa 0 mm - 267 W/m² -
1777491307 11.67° C 53% 1018.2 hPa 0 mm - 176 W/m² -
1777491003 11.67° C 51% 1018.2 hPa 0 mm - 105 W/m² -
1777490699 12.22° C 56% 1018.1 hPa 0 mm - 57 W/m² -
1777490395 12.22° C 55% 1017.9 hPa 0 mm - 79 W/m² -
1777490093 12.78° C 57% 1018 hPa 0 mm - 100 W/m² -
1777489790 13.33° C 53% 1017.9 hPa 0 mm - 217 W/m² -
1777489488 12.22° C 60% 1017.9 hPa 0 mm - 247 W/m² -
1777489184 12.78° C 60% 1018 hPa 0 mm - 162 W/m² -
1777488881 12.78° C 61% 1017.9 hPa 0 mm - 222 W/m² -
1777488578 12.78° C 59% 1017.7 hPa 0 mm - 201 W/m² -
1777488276 12.78° C 59% 1017.6 hPa 0 mm - 175 W/m² -
1777487974 12.78° C 58% 1017.7 hPa 0 mm - 230 W/m² -
1777487672 13.89° C 55% 1017.7 hPa 0 mm - 153 W/m² -
1777487368 13.33° C 59% 1017.8 hPa 0 mm - 908 W/m² -
1777487066 13.33° C 59% 1017.7 hPa 0 mm - 539 W/m² -
1777486761 13.33° C 57% 1017.6 hPa 0 mm - 169 W/m² -
1777486460 13.89° C 58% 1017.8 hPa 0 mm - 259 W/m² -
1777486157 14.44° C 56% 1017.8 hPa 0 mm - 877 W/m² -
1777485854 13.89° C 61% 1017.8 hPa 0 mm - 794 W/m² -
1777485555 12.78° C 62% 1017.9 hPa 0 mm - 842 W/m² -
1777485251 13.33° C 60% 1017.9 hPa 0 mm - 200 W/m² -
1777484947 13.33° C 61% 1017.8 hPa 0 mm - 873 W/m² -
1777484645 12.78° C 64% 1017.8 hPa 0 mm - 251 W/m² -

* Rain latest hour (hover to see other rain measurements)
** Current wind speed in m/s (hover to see current wind gust speed)